createdAt,value
2019-02-28T00:00:59.509Z,97632.93
2019-02-28T00:01:52.108Z,97631.06
2019-02-28T00:02:42.634Z,97634.71
2019-02-28T00:03:33.883Z,97634.71
2019-02-28T00:04:24.173Z,97636.02
2019-02-28T00:05:14.947Z,97638.19
2019-02-28T00:06:05.658Z,97629.53
2019-02-28T00:06:56.106Z,97638.13
2019-02-28T00:07:49.670Z,97637.08
2019-02-28T00:08:36.881Z,97629.50
2019-02-28T00:09:27.631Z,97627.64
2019-02-28T00:10:17.992Z,97629.50
2019-02-28T00:11:09.261Z,97626.81
2019-02-28T00:11:59.478Z,97624.69
2019-02-28T00:12:50.314Z,97623.89
2019-02-28T00:13:41.246Z,97627.64
2019-02-28T00:14:31.457Z,97624.33
2019-02-28T00:15:21.831Z,97633.24
2019-02-28T00:16:12.903Z,97630.87
2019-02-28T00:17:06.161Z,97627.58
2019-02-28T00:17:55.720Z,97631.90
2019-02-28T00:18:49.543Z,97627.84
2019-02-28T00:19:37.674Z,97627.87
2019-02-28T00:20:29.123Z,97623.31
2019-02-28T00:21:19.415Z,97629.01
2019-02-28T00:22:11.342Z,97621.23
2019-02-28T00:23:00.107Z,97626.32
2019-02-28T00:23:50.244Z,97620.12
2019-02-28T00:24:40.408Z,97622.55
2019-02-28T00:25:30.891Z,97627.87
2019-02-28T00:26:21.633Z,97621.64
2019-02-28T00:27:12.304Z,97622.69
2019-02-28T00:28:02.510Z,97625.41
2019-02-28T00:28:52.587Z,97622.98
2019-02-28T00:29:43.241Z,97619.80
2019-02-28T00:30:33.962Z,97621.44
2019-02-28T00:31:27.604Z,97615.24
2019-02-28T00:32:18.111Z,97617.91
2019-02-28T00:33:08.819Z,97621.64
2019-02-28T00:34:04.532Z,97618.14
2019-02-28T00:34:49.634Z,97604.63
2019-02-28T00:35:40.200Z,97617.81
2019-02-28T00:36:30.627Z,97624.01
2019-02-28T00:37:21.138Z,97606.23
2019-02-28T00:38:11.111Z,97614.02
2019-02-28T00:39:03.928Z,97612.90
2019-02-28T00:39:52.854Z,97614.02
2019-02-28T00:40:43.201Z,97620.96
2019-02-28T00:41:33.567Z,97614.73
2019-02-28T00:42:24.303Z,97619.62
2019-02-28T00:43:14.901Z,97613.48
2019-02-28T00:44:05.577Z,97619.62
2019-02-28T00:44:56.225Z,97616.64
2019-02-28T00:45:46.397Z,97616.64
2019-02-28T00:46:36.709Z,97615.59
2019-02-28T00:47:27.026Z,97615.13
2019-02-28T00:48:18.309Z,97617.20
2019-02-28T00:49:07.763Z,97608.25
2019-02-28T00:49:58.234Z,97613.10
2019-02-28T00:50:48.735Z,97616.91
2019-02-28T00:51:40.770Z,97612.78
2019-02-28T00:52:32.055Z,97613.39
2019-02-28T00:53:21.310Z,97604.48
2019-02-28T00:54:12.456Z,97605.23
2019-02-28T00:55:02.668Z,97599.02
2019-02-28T00:55:52.980Z,97608.42
2019-02-28T00:56:43.359Z,97599.38
2019-02-28T00:57:33.924Z,97593.97
2019-02-28T00:58:28.636Z,97593.77
2019-02-28T00:59:15.158Z,97594.81
2019-02-28T01:00:06.280Z,97586.20
2019-02-28T01:00:55.359Z,97592.13
2019-02-28T01:01:46.923Z,97592.95
2019-02-28T01:02:36.143Z,97587.77
2019-02-28T01:03:27.458Z,97584.33
2019-02-28T01:04:16.584Z,97587.54
2019-02-28T01:05:06.607Z,97586.13
2019-02-28T01:05:56.964Z,97575.44
2019-02-28T01:06:47.174Z,97574.63
2019-02-28T01:07:37.207Z,97584.59
2019-02-28T01:08:27.948Z,97573.11
2019-02-28T01:09:18.109Z,97568.02
2019-02-28T01:10:08.960Z,97571.77
2019-02-28T01:10:59.632Z,97565.86
2019-02-28T01:11:50.374Z,97560.75
2019-02-28T01:12:40.709Z,97565.30
2019-02-28T01:13:31.611Z,97558.30
2019-02-28T01:14:22.320Z,97561.50
2019-02-28T01:15:13.208Z,97564.43
2019-02-28T01:16:03.280Z,97561.50
2019-02-28T01:16:53.690Z,97567.94
2019-02-28T01:17:44.298Z,97563.38
2019-02-28T01:18:35.387Z,97558.59
2019-02-28T01:19:24.711Z,97556.66
2019-02-28T01:20:16.506Z,97562.27
2019-02-28T01:21:05.584Z,97559.05
2019-02-28T01:21:56.596Z,97559.93
2019-02-28T01:22:46.700Z,97557.24
2019-02-28T01:23:36.983Z,97545.91
2019-02-28T01:24:28.321Z,97543.51
2019-02-28T01:25:19.211Z,97555.02
2019-02-28T01:26:11.804Z,97547.75
2019-02-28T01:26:59.561Z,97547.95
2019-02-28T01:27:52.430Z,97542.58
2019-02-28T01:28:41.267Z,97545.82
2019-02-28T01:29:32.960Z,97533.72
2019-02-28T01:30:22.430Z,97536.41
2019-02-28T01:31:14.435Z,97542.31
2019-02-28T01:32:04.588Z,97536.12
2019-02-28T01:32:54.934Z,97535.56
2019-02-28T01:33:46.215Z,97532.06
2019-02-28T01:34:36.772Z,97539.59
2019-02-28T01:35:27.408Z,97536.61
2019-02-28T01:36:17.549Z,97526.89
2019-02-28T01:37:08.101Z,97525.78
2019-02-28T01:37:58.486Z,97526.05
2019-02-28T01:38:48.858Z,97527.56
2019-02-28T01:39:39.100Z,97522.74
2019-02-28T01:40:29.815Z,97525.43
2019-02-28T01:41:20.199Z,97521.86
2019-02-28T01:42:10.965Z,97523.12
2019-02-28T01:43:01.814Z,97520.17
2019-02-28T01:43:51.988Z,97516.70
2019-02-28T01:44:42.311Z,97520.49
2019-02-28T01:45:33.060Z,97517.28
2019-02-28T01:46:23.447Z,97510.89
2019-02-28T01:47:13.906Z,97519.23
2019-02-28T01:48:04.464Z,97514.13
2019-02-28T01:48:55.203Z,97505.80
2019-02-28T01:49:46.249Z,97520.84
2019-02-28T01:50:36.440Z,97514.42
2019-02-28T01:51:26.317Z,97511.50
2019-02-28T01:52:16.879Z,97510.70
2019-02-28T01:53:07.949Z,97503.14
2019-02-28T01:53:58.428Z,97510.39
2019-02-28T01:54:48.971Z,97513.86
2019-02-28T01:55:39.384Z,97500.45
2019-02-28T01:56:30.180Z,97506.36
2019-02-28T01:57:20.591Z,97503.44
2019-02-28T01:58:10.623Z,97507.84
2019-02-28T01:59:01.298Z,97496.80
2019-02-28T01:59:52.904Z,97493.06
2019-02-28T02:00:42.183Z,97504.08
2019-02-28T02:01:32.285Z,97497.97
2019-02-28T02:02:23.060Z,97495.02
2019-02-28T02:03:13.225Z,97500.57
2019-02-28T02:04:03.990Z,97499.78
2019-02-28T02:04:54.572Z,97493.83
2019-02-28T02:05:45.156Z,97485.77
2019-02-28T02:06:35.316Z,97490.30
2019-02-28T02:07:25.780Z,97492.69
2019-02-28T02:08:16.243Z,97487.40
2019-02-28T02:09:08.051Z,97493.30
2019-02-28T02:09:56.747Z,97487.40
2019-02-28T02:10:47.461Z,97497.09
2019-02-28T02:11:37.829Z,97495.17
2019-02-28T02:12:31.261Z,97492.45
2019-02-28T02:13:18.607Z,97485.77
2019-02-28T02:14:11.001Z,97486.61
2019-02-28T02:15:00.332Z,97488.77
2019-02-28T02:15:51.244Z,97475.86
2019-02-28T02:16:40.779Z,97473.98
2019-02-28T02:17:32.255Z,97485.85
2019-02-28T02:18:22.465Z,97484.21
2019-02-28T02:19:17.521Z,97480.77
2019-02-28T02:20:04.993Z,97482.58
2019-02-28T02:20:57.419Z,97477.99
2019-02-28T02:21:46.658Z,97479.05
2019-02-28T02:22:37.254Z,97483.11
2019-02-28T02:23:27.419Z,97481.00
2019-02-28T02:24:17.688Z,97472.86
2019-02-28T02:25:08.602Z,97465.08
2019-02-28T02:25:59.021Z,97468.09
2019-02-28T02:26:49.862Z,97474.05
2019-02-28T02:27:40.098Z,97469.72
2019-02-28T02:28:30.353Z,97466.22
2019-02-28T02:29:20.558Z,97468.41
2019-02-28T02:30:15.776Z,97467.56
2019-02-28T02:31:03.814Z,97465.38
2019-02-28T02:31:54.079Z,97466.72
2019-02-28T02:32:44.422Z,97462.69
2019-02-28T02:33:34.404Z,97461.05
2019-02-28T02:34:28.284Z,97464.84
2019-02-28T02:35:15.445Z,97454.36
2019-02-28T02:36:06.526Z,97466.52
2019-02-28T02:36:57.411Z,97456.60
2019-02-28T02:37:47.879Z,97459.81
2019-02-28T02:38:41.549Z,97454.44
2019-02-28T02:39:29.760Z,97452.81
2019-02-28T02:40:22.942Z,97455.26
2019-02-28T02:41:10.179Z,97453.39
2019-02-28T02:42:00.248Z,97448.59
2019-02-28T02:42:50.572Z,97452.63
2019-02-28T02:43:41.082Z,97443.22
2019-02-28T02:44:32.096Z,97451.75
2019-02-28T02:45:22.041Z,97448.02
2019-02-28T02:46:19.462Z,97447.44
2019-02-28T02:47:03.416Z,97444.80
2019-02-28T02:47:54.167Z,97463.37
2019-02-28T02:48:44.580Z,97452.42
2019-02-28T02:49:35.111Z,97448.04
2019-02-28T02:50:34.327Z,97451.55
2019-02-28T02:51:16.029Z,97446.44
2019-02-28T02:52:06.244Z,97442.14
2019-02-28T02:52:56.329Z,97442.42
2019-02-28T02:53:47.370Z,97443.77
2019-02-28T02:54:38.049Z,97444.01
2019-02-28T02:55:29.188Z,97438.90
2019-02-28T02:56:18.118Z,97434.58
2019-02-28T02:57:08.593Z,97438.90
2019-02-28T02:57:58.848Z,97440.84
2019-02-28T02:58:49.620Z,97440.03
2019-02-28T02:59:40.620Z,97431.67
2019-02-28T03:00:31.282Z,97433.09
2019-02-28T03:01:23.044Z,97429.06
2019-02-28T03:02:12.586Z,97436.31
2019-02-28T03:03:06.124Z,97433.70
2019-02-28T03:03:52.603Z,97426.38
2019-02-28T03:04:43.486Z,97429.06
2019-02-28T03:05:35.964Z,97422.88
2019-02-28T03:06:23.871Z,97435.28
2019-02-28T03:07:14.006Z,97426.43
2019-02-28T03:08:04.291Z,97425.63
2019-02-28T03:08:54.570Z,97425.84
2019-02-28T03:09:44.880Z,97421.58
2019-02-28T03:10:34.635Z,97428.85
2019-02-28T03:11:26.054Z,97428.09
2019-02-28T03:12:16.368Z,97416.80
2019-02-28T03:13:06.807Z,97417.05
2019-02-28T03:13:58.111Z,97413.75
2019-02-28T03:14:48.981Z,97422.64
2019-02-28T03:15:38.960Z,97423.40
2019-02-28T03:16:32.955Z,97417.73
2019-02-28T03:17:19.641Z,97421.51
2019-02-28T03:18:09.936Z,97419.88
2019-02-28T03:18:59.911Z,97413.99
2019-02-28T03:19:50.105Z,97408.45
2019-02-28T03:20:41.106Z,97404.42
2019-02-28T03:21:30.242Z,97411.95
2019-02-28T03:22:24.538Z,97403.67
2019-02-28T03:23:10.827Z,97403.17
2019-02-28T03:24:01.019Z,97395.61
2019-02-28T03:24:52.308Z,97399.64
2019-02-28T03:25:41.526Z,97400.98
2019-02-28T03:26:31.875Z,97395.25
2019-02-28T03:27:22.138Z,97393.91
2019-02-28T03:28:14.057Z,97389.85
2019-02-28T03:29:07.510Z,97383.97
2019-02-28T03:29:53.837Z,97397.94
2019-02-28T03:30:44.157Z,97395.63
2019-02-28T03:31:34.870Z,97391.81
2019-02-28T03:32:25.534Z,97386.37
2019-02-28T03:33:25.177Z,97389.41
2019-02-28T03:34:13.235Z,97388.00
2019-02-28T03:34:59.133Z,97386.89
2019-02-28T03:35:46.942Z,97379.12
2019-02-28T03:36:37.647Z,97383.44
2019-02-28T03:37:32.806Z,97388.00
2019-02-28T03:38:18.572Z,97380.16
2019-02-28T03:39:08.886Z,97373.44
2019-02-28T03:40:04.378Z,97384.78
2019-02-28T03:40:51.249Z,97376.72
2019-02-28T03:41:41.374Z,97381.26
2019-02-28T03:42:31.597Z,97382.02
2019-02-28T03:43:22.302Z,97383.66
2019-02-28T03:44:19.812Z,97378.06
2019-02-28T03:45:04.102Z,97381.52
2019-02-28T03:45:54.636Z,97371.05
2019-02-28T03:46:46.743Z,97379.41
2019-02-28T03:47:35.455Z,97369.19
2019-02-28T03:48:26.024Z,97366.26
2019-02-28T03:49:16.741Z,97371.70
2019-02-28T03:50:08.020Z,97370.98
2019-02-28T03:50:58.379Z,97362.91
2019-02-28T03:51:48.959Z,97368.58
2019-02-28T03:52:43.919Z,97365.07
2019-02-28T03:53:29.630Z,97359.19
2019-02-28T03:54:20.337Z,97370.45
2019-02-28T03:55:10.938Z,97359.71
2019-02-28T03:56:01.446Z,97365.66
2019-02-28T03:56:53.256Z,97365.59
2019-02-28T03:57:41.826Z,97362.63
2019-02-28T03:58:31.860Z,97351.09
2019-02-28T03:59:22.753Z,97357.31
2019-02-28T04:00:14.915Z,97356.03
2019-02-28T04:01:09.113Z,97356.78
2019-02-28T04:01:55.313Z,97352.80
2019-02-28T04:02:46.028Z,97351.93
2019-02-28T04:03:37.665Z,97349.40
2019-02-28T04:04:28.229Z,97342.73
2019-02-28T04:05:18.295Z,97348.34
2019-02-28T04:06:10.432Z,97346.93
2019-02-28T04:07:01.306Z,97354.38
2019-02-28T04:07:53.661Z,97347.08
2019-02-28T04:08:42.343Z,97349.77
2019-02-28T04:09:33.755Z,97336.05
2019-02-28T04:10:24.060Z,97348.72
2019-02-28T04:11:14.127Z,97333.64
2019-02-28T04:12:08.519Z,97343.36
2019-02-28T04:12:56.252Z,97338.84
2019-02-28T04:13:47.259Z,97339.97
2019-02-28T04:14:37.552Z,97341.55
2019-02-28T04:15:27.580Z,97338.27
2019-02-28T04:16:17.656Z,97336.40
2019-02-28T04:17:08.510Z,97334.29
2019-02-28T04:18:06.693Z,97328.58
2019-02-28T04:18:50.035Z,97339.33
2019-02-28T04:19:41.053Z,97329.68
2019-02-28T04:20:36.369Z,97334.81
2019-02-28T04:21:22.421Z,97327.83
2019-02-28T04:22:12.964Z,97328.09
2019-02-28T04:23:03.612Z,97323.48
2019-02-28T04:23:54.332Z,97327.02
2019-02-28T04:24:46.212Z,97328.69
2019-02-28T04:25:35.312Z,97321.97
2019-02-28T04:26:29.784Z,97319.50
2019-02-28T04:27:16.243Z,97320.52
2019-02-28T04:28:06.455Z,97324.00
2019-02-28T04:28:56.640Z,97320.80
2019-02-28T04:29:46.712Z,97315.41
2019-02-28T04:30:42.623Z,97320.44
2019-02-28T04:31:27.625Z,97315.59
2019-02-28T04:32:18.957Z,97322.66
2019-02-28T04:33:10.939Z,97310.80
2019-02-28T04:34:01.563Z,97312.14
2019-02-28T04:34:51.747Z,97306.26
2019-02-28T04:35:42.220Z,97318.64
2019-02-28T04:36:35.411Z,97314.59
2019-02-28T04:37:23.341Z,97318.09
2019-02-28T04:38:13.966Z,97318.09
2019-02-28T04:39:05.761Z,97320.80
2019-02-28T04:39:56.225Z,97323.25
2019-02-28T04:40:46.726Z,97323.78
2019-02-28T04:41:37.555Z,97318.92
2019-02-28T04:42:28.370Z,97317.59
2019-02-28T04:43:19.101Z,97319.97
2019-02-28T04:44:09.504Z,97312.67
2019-02-28T04:45:00.494Z,97315.34
2019-02-28T04:45:51.309Z,97310.51
2019-02-28T04:46:41.249Z,97309.16
2019-02-28T04:47:31.638Z,97308.33
2019-02-28T04:48:22.264Z,97302.67
2019-02-28T04:49:12.568Z,97301.85
2019-02-28T04:50:03.075Z,97301.56
2019-02-28T04:50:54.773Z,97294.31
2019-02-28T04:51:45.667Z,97289.73
2019-02-28T04:52:36.266Z,97299.91
2019-02-28T04:53:26.568Z,97298.02
2019-02-28T04:54:17.188Z,97291.83
2019-02-28T04:55:07.730Z,97298.55
2019-02-28T04:55:58.552Z,97291.30
2019-02-28T04:56:48.825Z,97293.99
2019-02-28T04:57:39.166Z,97289.96
2019-02-28T04:58:29.574Z,97286.98
2019-02-28T04:59:20.040Z,97294.52
2019-02-28T05:00:10.917Z,97289.73
2019-02-28T05:01:01.446Z,97285.42
2019-02-28T05:01:51.567Z,97287.34
2019-02-28T05:02:42.185Z,97287.59
2019-02-28T05:03:32.453Z,97286.03
2019-02-28T05:04:22.718Z,97290.63
2019-02-28T05:05:13.798Z,97274.75
2019-02-28T05:06:04.229Z,97280.40
2019-02-28T05:06:55.136Z,97273.41
2019-02-28T05:07:46.082Z,97275.56
2019-02-28T05:08:38.599Z,97274.23
2019-02-28T05:09:26.423Z,97275.86
2019-02-28T05:10:19.216Z,97270.19
2019-02-28T05:11:07.077Z,97273.17
2019-02-28T05:11:57.257Z,97269.91
2019-02-28T05:12:47.361Z,97266.16
2019-02-28T05:13:38.407Z,97265.62
2019-02-28T05:14:28.648Z,97266.14
2019-02-28T05:15:19.231Z,97271.23
2019-02-28T05:16:12.369Z,97262.64
2019-02-28T05:17:01.445Z,97281.17
2019-02-28T05:17:53.079Z,97273.39
2019-02-28T05:18:42.620Z,97269.08
2019-02-28T05:19:35.759Z,97269.38
2019-02-28T05:20:23.053Z,97270.72
2019-02-28T05:21:13.273Z,97262.13
2019-02-28T05:22:04.191Z,97259.48
2019-02-28T05:22:54.076Z,97262.98
2019-02-28T05:23:44.669Z,97252.50
2019-02-28T05:24:35.941Z,97265.68
2019-02-28T05:25:27.097Z,97255.68
2019-02-28T05:26:17.685Z,97265.05
2019-02-28T05:27:08.190Z,97268.56
2019-02-28T05:27:58.367Z,97264.05
2019-02-28T05:28:48.946Z,97254.40
2019-02-28T05:29:39.807Z,97258.67
2019-02-28T05:30:30.304Z,97263.23
2019-02-28T05:31:21.272Z,97257.62
2019-02-28T05:32:11.976Z,97253.30
2019-02-28T05:33:02.194Z,97260.30
2019-02-28T05:33:53.138Z,97258.14
2019-02-28T05:34:43.542Z,97251.95
2019-02-28T05:35:34.425Z,97248.69
2019-02-28T05:36:25.158Z,97250.56
2019-02-28T05:37:16.549Z,97248.97
2019-02-28T05:38:06.810Z,97254.06
2019-02-28T05:38:57.349Z,97247.34
2019-02-28T05:39:47.686Z,97247.63
2019-02-28T05:40:41.393Z,97247.92
2019-02-28T05:41:28.543Z,97240.91
2019-02-28T05:42:20.323Z,97244.95
2019-02-28T05:43:09.542Z,97233.63
2019-02-28T05:44:03.300Z,97237.34
2019-02-28T05:44:51.352Z,97234.66
2019-02-28T05:45:42.048Z,97224.78
2019-02-28T05:46:32.913Z,97236.88
2019-02-28T05:47:23.371Z,97231.80
2019-02-28T05:48:13.925Z,97230.73
2019-02-28T05:49:04.141Z,97233.97
2019-02-28T05:49:54.293Z,97229.69
2019-02-28T05:50:46.769Z,97227.59
2019-02-28T05:51:35.449Z,97230.00
2019-02-28T05:52:26.483Z,97227.84
2019-02-28T05:53:16.832Z,97225.67
2019-02-28T05:54:07.608Z,97232.98
2019-02-28T05:54:57.940Z,97221.22
2019-02-28T05:55:48.458Z,97217.44
2019-02-28T05:56:39.462Z,97219.64
2019-02-28T05:57:29.780Z,97218.31
2019-02-28T05:58:20.989Z,97220.18
2019-02-28T05:59:11.159Z,97222.62
2019-02-28T06:00:02.896Z,97221.57
2019-02-28T06:00:52.140Z,97223.16
2019-02-28T06:01:46.771Z,97215.95
2019-02-28T06:02:34.068Z,97221.06
2019-02-28T06:03:24.911Z,97220.28
2019-02-28T06:04:15.548Z,97225.38
2019-02-28T06:05:08.423Z,97224.61
2019-02-28T06:05:56.768Z,97223.27
2019-02-28T06:06:47.347Z,97223.27
2019-02-28T06:07:37.967Z,97226.78
2019-02-28T06:08:28.459Z,97217.94
2019-02-28T06:09:19.272Z,97219.59
2019-02-28T06:10:09.606Z,97223.71
2019-02-28T06:11:01.373Z,97234.72
2019-02-28T06:11:50.374Z,97222.03
2019-02-28T06:12:43.653Z,97224.19
2019-02-28T06:13:31.121Z,97227.94
2019-02-28T06:14:26.642Z,97220.68
2019-02-28T06:15:12.960Z,97217.17
2019-02-28T06:16:03.589Z,97223.62
2019-02-28T06:16:54.359Z,97222.27
2019-02-28T06:17:45.462Z,97229.81
2019-02-28T06:18:35.513Z,97223.37
2019-02-28T06:19:25.742Z,97223.37
2019-02-28T06:20:17.694Z,97233.08
2019-02-28T06:21:06.992Z,97233.03
2019-02-28T06:21:59.495Z,97222.27
2019-02-28T06:22:47.174Z,97233.61
2019-02-28T06:23:37.248Z,97221.79
2019-02-28T06:24:29.800Z,97227.70
2019-02-28T06:25:24.068Z,97223.19
2019-02-28T06:26:11.256Z,97218.87
2019-02-28T06:27:03.713Z,97223.76
2019-02-28T06:27:53.485Z,97218.63
2019-02-28T06:28:44.290Z,97225.69
2019-02-28T06:29:36.791Z,97220.06
2019-02-28T06:30:27.611Z,97224.68
2019-02-28T06:31:15.535Z,97222.52
2019-02-28T06:32:06.028Z,97221.75
2019-02-28T06:32:59.150Z,97227.70
2019-02-28T06:33:47.019Z,97224.20
2019-02-28T06:34:39.405Z,97227.27
2019-02-28T06:35:28.696Z,97218.63
2019-02-28T06:36:19.227Z,97231.30
2019-02-28T06:37:09.925Z,97223.80
2019-02-28T06:38:00.747Z,97223.80
2019-02-28T06:38:54.440Z,97220.86
2019-02-28T06:39:41.609Z,97226.29
2019-02-28T06:40:32.992Z,97219.03
2019-02-28T06:41:22.467Z,97215.80
2019-02-28T06:42:13.145Z,97220.91
2019-02-28T06:43:03.563Z,97212.87
2019-02-28T06:43:53.909Z,97220.70
2019-02-28T06:44:44.030Z,97211.27
2019-02-28T06:45:37.604Z,97221.83
2019-02-28T06:46:24.948Z,97211.87
2019-02-28T06:47:15.662Z,97216.77
2019-02-28T06:48:05.877Z,97218.14
2019-02-28T06:49:01.497Z,97216.27
2019-02-28T06:49:47.237Z,97216.27
2019-02-28T06:50:37.192Z,97214.67
2019-02-28T06:51:27.838Z,97221.72
2019-02-28T06:52:18.313Z,97216.89
2019-02-28T06:53:08.907Z,97223.91
2019-02-28T06:53:59.483Z,97218.80
2019-02-28T06:54:50.676Z,97216.66
2019-02-28T06:55:47.615Z,97219.41
2019-02-28T06:56:37.545Z,97207.05
2019-02-28T06:57:27.625Z,97227.03
2019-02-28T06:58:17.941Z,97197.64
2019-02-28T06:59:09.004Z,97191.53
2019-02-28T06:59:59.764Z,97205.31
2019-02-28T07:00:50.574Z,97197.52
2019-02-28T07:01:40.560Z,97201.55
2019-02-28T07:02:31.473Z,97192.34
2019-02-28T07:03:21.747Z,97197.09
2019-02-28T07:04:14.517Z,97180.63
2019-02-28T07:05:02.110Z,97183.41
2019-02-28T07:05:52.289Z,97189.05
2019-02-28T07:06:42.609Z,97180.77
2019-02-28T07:07:33.215Z,97184.48
2019-02-28T07:08:24.890Z,97181.89
2019-02-28T07:09:14.276Z,97193.92
2019-02-28T07:10:06.250Z,97188.77
2019-02-28T07:10:56.583Z,97188.66
2019-02-28T07:11:46.859Z,97183.20
2019-02-28T07:12:37.647Z,97186.48
2019-02-28T07:13:28.684Z,97188.80
2019-02-28T07:14:19.582Z,97192.26
2019-02-28T07:15:09.933Z,97180.95
2019-02-28T07:16:00.770Z,97185.66
2019-02-28T07:16:51.573Z,97177.62
2019-02-28T07:17:46.200Z,97186.20
2019-02-28T07:18:32.871Z,97174.56
2019-02-28T07:19:26.290Z,97186.91
2019-02-28T07:20:14.588Z,97182.69
2019-02-28T07:21:07.803Z,97185.81
2019-02-28T07:21:55.846Z,97176.27
2019-02-28T07:22:46.349Z,97163.84
2019-02-28T07:23:37.148Z,97169.59
2019-02-28T07:24:27.888Z,97168.22
2019-02-28T07:25:18.357Z,97165.11
2019-02-28T07:26:09.301Z,97168.19
2019-02-28T07:26:59.283Z,97158.16
2019-02-28T07:27:49.991Z,97164.05
2019-02-28T07:28:40.618Z,97168.58
2019-02-28T07:29:32.106Z,97158.00
2019-02-28T07:30:21.068Z,97151.12
2019-02-28T07:31:11.500Z,97146.95
2019-02-28T07:32:02.088Z,97144.33
2019-02-28T07:32:53.202Z,97151.22
2019-02-28T07:33:44.522Z,97138.05
2019-02-28T07:34:34.075Z,97123.16
2019-02-28T07:35:24.373Z,97140.12
2019-02-28T07:36:14.253Z,97140.20
2019-02-28T07:37:04.692Z,97131.25
2019-02-28T07:37:55.979Z,97132.81
2019-02-28T07:38:45.907Z,97119.36
2019-02-28T07:39:40.130Z,97136.16
2019-02-28T07:40:27.152Z,97112.72
2019-02-28T07:41:17.816Z,97105.73
2019-02-28T07:42:08.443Z,97108.96
2019-02-28T07:42:58.751Z,97111.45
2019-02-28T07:43:48.888Z,97123.80
2019-02-28T07:44:39.471Z,97102.98
2019-02-28T07:45:33.103Z,97111.33
2019-02-28T07:46:20.079Z,97105.54
2019-02-28T07:47:10.380Z,97105.56
2019-02-28T07:48:01.399Z,97095.54
2019-02-28T07:48:52.714Z,97102.91
2019-02-28T07:49:43.255Z,97086.14
2019-02-28T07:50:33.429Z,97093.53
2019-02-28T07:51:26.313Z,97099.76
2019-02-28T07:52:14.887Z,97102.33
2019-02-28T07:53:05.573Z,97096.47
2019-02-28T07:53:55.241Z,97090.68
2019-02-28T07:54:47.463Z,97077.45
2019-02-28T07:55:36.445Z,97105.74
2019-02-28T07:56:26.671Z,97082.84
2019-02-28T07:57:17.961Z,97083.61
2019-02-28T07:58:07.719Z,97091.77
2019-02-28T07:58:58.408Z,97070.58
2019-02-28T07:59:49.266Z,97081.20
2019-02-28T08:00:40.107Z,97091.76
2019-02-28T08:01:30.737Z,97079.77
2019-02-28T08:02:21.057Z,97082.52
2019-02-28T08:03:12.076Z,97077.80
2019-02-28T08:04:02.277Z,97079.48
2019-02-28T08:04:54.538Z,97092.55
2019-02-28T08:05:43.418Z,97086.18
2019-02-28T08:06:36.365Z,97077.44
2019-02-28T08:07:24.962Z,97085.14
2019-02-28T08:08:15.659Z,97077.80
2019-02-28T08:09:14.242Z,97080.52
2019-02-28T08:10:07.239Z,97080.97
2019-02-28T08:10:57.501Z,97088.75
2019-02-28T08:11:48.273Z,97079.73
2019-02-28T08:12:38.663Z,97071.59
2019-02-28T08:13:29.705Z,97065.77
2019-02-28T08:14:20.447Z,97073.41
2019-02-28T08:15:14.562Z,97068.28
2019-02-28T08:16:05.265Z,97079.95
2019-02-28T08:16:55.839Z,97072.89
2019-02-28T08:17:46.405Z,97066.23
2019-02-28T08:18:37.419Z,97079.16
2019-02-28T08:19:28.606Z,97069.77
2019-02-28T08:20:19.344Z,97068.95
2019-02-28T08:21:09.477Z,97061.06
2019-02-28T08:22:00.027Z,97099.19
2019-02-28T08:22:50.359Z,97071.39
2019-02-28T08:23:42.219Z,97068.17
2019-02-28T08:24:35.878Z,97066.01
2019-02-28T08:25:23.478Z,97063.13
2019-02-28T08:26:15.555Z,97059.72
2019-02-28T08:27:04.443Z,97075.27
2019-02-28T08:27:59.086Z,97057.99
2019-02-28T08:28:45.418Z,97077.70
2019-02-28T08:29:35.530Z,97064.84
2019-02-28T08:30:26.548Z,97058.08
2019-02-28T08:31:17.484Z,97073.33
2019-02-28T08:32:08.312Z,97066.89
2019-02-28T08:32:58.672Z,97068.50
2019-02-28T08:33:49.288Z,97063.11
2019-02-28T08:34:39.126Z,97069.88
2019-02-28T08:35:34.042Z,97063.91
2019-02-28T08:36:20.549Z,97071.69
2019-02-28T08:37:11.677Z,97053.67
2019-02-28T08:38:02.232Z,97061.36
2019-02-28T08:38:53.620Z,97071.78
2019-02-28T08:39:44.049Z,97067.33
2019-02-28T08:40:34.737Z,97077.77
2019-02-28T08:41:26.409Z,97071.22
2019-02-28T08:42:17.604Z,97068.94
2019-02-28T08:43:10.514Z,97080.52
2019-02-28T08:43:59.946Z,97078.06
2019-02-28T08:44:50.200Z,97073.27
2019-02-28T08:45:40.835Z,97083.22
2019-02-28T08:46:31.281Z,97079.80
2019-02-28T08:47:22.235Z,97080.58
2019-02-28T08:48:12.804Z,97090.00
2019-02-28T08:49:06.245Z,97089.53
2019-02-28T08:49:53.600Z,97087.02
2019-02-28T08:50:44.155Z,97078.09
2019-02-28T08:51:34.833Z,97095.27
2019-02-28T08:52:25.078Z,97077.86
2019-02-28T08:53:16.316Z,97089.34
2019-02-28T08:54:06.315Z,97107.88
2019-02-28T08:54:59.712Z,97094.27
2019-02-28T08:55:47.020Z,97119.59
2019-02-28T08:56:37.191Z,97110.42
2019-02-28T08:57:27.772Z,97103.45
2019-02-28T08:58:18.022Z,97105.29
2019-02-28T08:59:11.869Z,97097.14
2019-02-28T08:59:58.587Z,97093.72
2019-02-28T09:00:49.327Z,97097.73
2019-02-28T09:01:41.283Z,97109.85
2019-02-28T09:02:30.418Z,97098.52
2019-02-28T09:03:20.700Z,97094.30
2019-02-28T09:04:11.984Z,97090.71
2019-02-28T09:05:02.337Z,97089.23
2019-02-28T09:05:52.828Z,97092.99
2019-02-28T09:06:43.296Z,97092.42
2019-02-28T09:07:33.756Z,97084.64
2019-02-28T09:08:25.332Z,97097.34
2019-02-28T09:09:15.771Z,97095.97
2019-02-28T09:10:11.724Z,97086.55
2019-02-28T09:10:57.845Z,97084.50
2019-02-28T09:11:49.486Z,97087.48
2019-02-28T09:12:40.429Z,97091.14
2019-02-28T09:13:31.403Z,97090.00
2019-02-28T09:14:21.695Z,97073.59
2019-02-28T09:15:12.438Z,97090.00
2019-02-28T09:16:04.881Z,97088.26
2019-02-28T09:16:53.064Z,97073.83
2019-02-28T09:17:44.249Z,97075.54
2019-02-28T09:18:34.497Z,97079.19
2019-02-28T09:19:25.180Z,97080.90
2019-02-28T09:20:15.615Z,97077.47
2019-02-28T09:21:06.240Z,97082.98
2019-02-28T09:21:56.125Z,97081.73
2019-02-28T09:22:46.562Z,97086.99
2019-02-28T09:23:37.525Z,97082.16
2019-02-28T09:24:27.462Z,97076.98
2019-02-28T09:25:21.417Z,97072.05
2019-02-28T09:26:07.834Z,97082.56
2019-02-28T09:26:58.152Z,97088.87
2019-02-28T09:27:49.107Z,97084.61
2019-02-28T09:28:40.099Z,97088.73
2019-02-28T09:29:30.668Z,97083.23
2019-02-28T09:30:33.648Z,97078.62
2019-02-28T09:31:24.141Z,97090.77
2019-02-28T09:32:15.046Z,97073.88
2019-02-28T09:33:05.436Z,97075.26
2019-02-28T09:33:58.901Z,97077.55
2019-02-28T09:34:47.837Z,97073.08
2019-02-28T09:35:38.585Z,97077.88
2019-02-28T09:36:28.891Z,97068.89
2019-02-28T09:37:19.563Z,97079.80
2019-02-28T09:38:13.446Z,97070.25
2019-02-28T09:39:00.515Z,97074.23
2019-02-28T09:39:51.246Z,97079.23
2019-02-28T09:40:41.956Z,97077.17
2019-02-28T09:41:32.742Z,97085.30
2019-02-28T09:42:23.927Z,97078.27
2019-02-28T09:43:14.254Z,97074.36
2019-02-28T09:44:06.978Z,97089.17
2019-02-28T09:44:55.805Z,97060.59
2019-02-28T09:45:47.251Z,97079.05
2019-02-28T09:46:37.293Z,97078.33
2019-02-28T09:47:28.069Z,97078.33
2019-02-28T09:48:18.707Z,97076.52
2019-02-28T09:49:12.984Z,97078.58
2019-02-28T09:50:00.288Z,97075.48
2019-02-28T09:50:50.277Z,97074.11
2019-02-28T09:51:42.458Z,97070.86
2019-02-28T09:52:32.109Z,97072.47
2019-02-28T09:53:22.909Z,97070.26
2019-02-28T09:54:13.437Z,97072.30
2019-02-28T09:55:04.596Z,97069.93